createdAt,value
2022-10-11T00:00:22.011Z,503.00
2022-10-11T00:01:21.350Z,501.00
2022-10-11T00:02:21.377Z,501.00
2022-10-11T00:03:21.188Z,501.00
2022-10-11T00:04:21.501Z,502.00
2022-10-11T00:05:21.918Z,501.00
2022-10-11T00:06:21.286Z,500.00
2022-10-11T00:07:21.177Z,499.00
2022-10-11T00:08:21.284Z,500.00
2022-10-11T00:09:21.784Z,501.00
2022-10-11T00:10:22.107Z,500.00
2022-10-11T00:11:20.992Z,501.00
2022-10-11T00:12:21.927Z,499.00
2022-10-11T00:13:20.988Z,496.00
2022-10-11T00:14:21.758Z,497.00
2022-10-11T00:15:21.367Z,498.00
2022-10-11T00:16:22.014Z,499.00
2022-10-11T00:17:20.930Z,500.00
2022-10-11T00:18:21.669Z,501.00
2022-10-11T00:19:21.618Z,499.00
2022-10-11T00:20:22.807Z,498.00
2022-10-11T00:21:21.518Z,497.00
2022-10-11T00:22:21.867Z,498.00
2022-10-11T00:23:21.534Z,501.00
2022-10-11T00:24:21.599Z,499.00
2022-10-11T00:25:20.828Z,499.00
2022-10-11T00:26:20.886Z,500.00
2022-10-11T00:27:21.546Z,500.00
2022-10-11T00:28:21.088Z,501.00
2022-10-11T00:29:20.768Z,499.00
2022-10-11T00:30:21.711Z,497.00
2022-10-11T00:31:21.438Z,498.00
2022-10-11T00:32:21.045Z,496.00
2022-10-11T00:33:20.730Z,495.00
2022-10-11T00:34:20.988Z,495.00
2022-10-11T00:35:20.716Z,496.00
2022-10-11T00:36:23.009Z,499.00
2022-10-11T00:37:20.648Z,500.00
2022-10-11T00:38:21.607Z,499.00
2022-10-11T00:39:20.628Z,499.00
2022-10-11T00:40:20.839Z,501.00
2022-10-11T00:41:20.623Z,499.00
2022-10-11T00:42:21.718Z,498.00
2022-10-11T00:43:20.548Z,500.00
2022-10-11T00:44:20.689Z,503.00
2022-10-11T00:45:20.560Z,505.00
2022-10-11T00:46:20.737Z,507.00
2022-10-11T00:47:20.529Z,507.00
2022-10-11T00:48:21.874Z,509.00
2022-10-11T00:49:20.508Z,512.00
2022-10-11T00:50:20.706Z,512.00
2022-10-11T00:51:21.107Z,511.00
2022-10-11T00:52:21.450Z,512.00
2022-10-11T00:53:21.147Z,514.00
2022-10-11T00:54:23.349Z,514.00
2022-10-11T00:55:21.227Z,510.00
2022-10-11T00:56:21.207Z,508.00
2022-10-11T00:57:21.100Z,507.00
2022-10-11T00:58:21.357Z,510.00
2022-10-11T00:59:21.047Z,510.00
2022-10-11T01:00:21.125Z,509.00
2022-10-11T01:01:20.690Z,509.00
2022-10-11T01:02:20.537Z,512.00
2022-10-11T01:03:20.349Z,512.00
2022-10-11T01:04:22.837Z,512.00
2022-10-11T01:05:29.894Z,510.00
2022-10-11T01:06:21.968Z,509.00
2022-10-11T01:07:41.979Z,510.00
2022-10-11T01:08:20.877Z,508.00
2022-10-11T01:09:21.018Z,511.00
2022-10-11T01:10:21.934Z,512.00
2022-10-11T01:11:21.167Z,512.00
2022-10-11T01:12:20.242Z,512.00
2022-10-11T01:13:23.228Z,511.00
2022-10-11T01:14:20.797Z,515.00
2022-10-11T01:15:21.229Z,514.00
2022-10-11T01:16:20.158Z,514.00
2022-10-11T01:17:42.010Z,514.00
2022-10-11T01:18:20.788Z,514.00
2022-10-11T01:19:20.277Z,514.00
2022-10-11T01:20:20.798Z,514.00
2022-10-11T01:21:20.898Z,515.00
2022-10-11T01:22:20.968Z,515.00
2022-10-11T01:23:42.003Z,516.00
2022-10-11T01:24:20.847Z,518.00
2022-10-11T01:25:20.890Z,520.00
2022-10-11T01:26:20.698Z,520.00
2022-10-11T01:27:20.837Z,517.00
2022-10-11T01:28:20.958Z,515.00
2022-10-11T01:29:20.137Z,514.00
2022-10-11T01:30:19.957Z,513.00
2022-10-11T01:31:20.318Z,514.00
2022-10-11T01:32:20.237Z,514.00
2022-10-11T01:33:20.109Z,517.00
2022-10-11T01:34:19.928Z,517.00
2022-10-11T01:35:40.998Z,520.00
2022-10-11T01:36:19.899Z,524.00
2022-10-11T01:37:21.741Z,524.00
2022-10-11T01:38:19.969Z,520.00
2022-10-11T01:39:20.020Z,519.00
2022-10-11T01:40:20.708Z,517.00
2022-10-11T01:41:41.607Z,516.00
2022-10-11T01:42:22.248Z,514.00
2022-10-11T01:43:20.577Z,512.00
2022-10-11T01:44:20.428Z,513.00
2022-10-11T01:45:41.689Z,516.00
2022-10-11T01:46:19.729Z,515.00
2022-10-11T01:48:29.939Z,586.00
2022-10-11T01:49:29.610Z,518.00
2022-10-11T01:50:29.720Z,514.00
2022-10-11T01:51:29.830Z,513.00
2022-10-11T01:52:29.740Z,511.00
2022-10-11T01:53:29.707Z,511.00
2022-10-11T01:54:44.341Z,509.00
2022-10-11T01:55:31.759Z,510.00
2022-10-11T01:56:30.230Z,513.00
2022-10-11T01:57:29.867Z,512.00
2022-10-11T01:58:29.567Z,512.00
2022-10-11T01:59:29.619Z,515.00
2022-10-11T02:00:29.546Z,515.00
2022-10-11T02:01:29.679Z,516.00
2022-10-11T02:02:28.770Z,519.00
2022-10-11T02:03:29.729Z,520.00
2022-10-11T02:04:29.445Z,518.00
2022-10-11T02:05:51.461Z,520.00
2022-10-11T02:06:29.528Z,518.00
2022-10-11T02:07:29.465Z,519.00
2022-10-11T02:08:29.358Z,520.00
2022-10-11T02:09:29.719Z,519.00
2022-10-11T02:10:29.379Z,522.00
2022-10-11T02:11:29.529Z,523.00
2022-10-11T02:12:29.340Z,522.00
2022-10-11T02:13:30.408Z,523.00
2022-10-11T02:14:29.359Z,523.00
2022-10-11T02:15:29.597Z,524.00
2022-10-11T02:16:29.285Z,525.00
2022-10-11T02:17:31.790Z,522.00
2022-10-11T02:18:29.277Z,522.00
2022-10-11T02:19:29.276Z,524.00
2022-10-11T02:20:29.187Z,526.00
2022-10-11T02:21:29.529Z,527.00
2022-10-11T02:22:29.240Z,527.00
2022-10-11T02:23:29.357Z,528.00
2022-10-11T02:24:29.129Z,529.00
2022-10-11T02:25:29.279Z,530.00
2022-10-11T02:26:28.455Z,529.00
2022-10-11T02:27:29.648Z,528.00
2022-10-11T02:28:29.125Z,531.00
2022-10-11T02:29:29.268Z,531.00
2022-10-11T02:30:29.098Z,529.00
2022-10-11T02:31:29.189Z,527.00
2022-10-11T02:32:29.039Z,527.00
2022-10-11T02:33:28.738Z,526.00
2022-10-11T02:34:28.386Z,526.00
2022-10-11T02:35:29.228Z,523.00
2022-10-11T02:36:28.413Z,521.00
2022-10-11T02:37:30.578Z,520.00
2022-10-11T02:38:29.091Z,519.00
2022-10-11T02:39:29.200Z,521.00
2022-10-11T02:40:28.328Z,523.00
2022-10-11T02:41:28.520Z,526.00
2022-10-11T02:42:28.389Z,523.00
2022-10-11T02:43:49.478Z,522.00
2022-10-11T02:44:28.306Z,522.00
2022-10-11T02:45:28.498Z,519.00
2022-10-11T02:46:28.189Z,519.00
2022-10-11T02:47:28.389Z,517.00
2022-10-11T02:48:28.205Z,518.00
2022-10-11T02:49:28.348Z,519.00
2022-10-11T02:50:28.149Z,522.00
2022-10-11T02:51:28.269Z,525.00
2022-10-11T02:52:28.169Z,531.00
2022-10-11T02:53:29.039Z,531.00
2022-10-11T02:54:28.195Z,532.00
2022-10-11T02:55:28.280Z,531.00
2022-10-11T02:56:28.129Z,528.00
2022-10-11T02:57:28.278Z,528.00
2022-10-11T02:58:28.042Z,527.00
2022-10-11T02:59:28.809Z,523.00
2022-10-11T03:00:28.708Z,523.00
2022-10-11T03:01:28.824Z,522.00
2022-10-11T03:02:28.017Z,522.00
2022-10-11T03:03:28.187Z,523.00
2022-10-11T03:04:28.669Z,523.00
2022-10-11T03:05:28.200Z,522.00
2022-10-11T03:06:27.958Z,523.00
2022-10-11T03:07:28.938Z,522.00
2022-10-11T03:08:28.559Z,519.00
2022-10-11T03:09:29.199Z,518.00
2022-10-11T03:10:28.569Z,519.00
2022-10-11T03:11:28.730Z,520.00
2022-10-11T03:12:28.649Z,523.00
2022-10-11T03:13:28.802Z,523.00
2022-10-11T03:14:28.488Z,525.00
2022-10-11T03:15:28.787Z,524.00
2022-10-11T03:16:27.806Z,527.00
2022-10-11T03:17:36.707Z,527.00
2022-10-11T03:18:29.453Z,524.00
2022-10-11T03:19:28.649Z,521.00
2022-10-11T03:20:28.468Z,522.00
2022-10-11T03:21:28.780Z,525.00
2022-10-11T03:22:27.709Z,526.00
2022-10-11T03:23:28.688Z,526.00
2022-10-11T03:24:28.410Z,525.00
2022-10-11T03:25:28.488Z,527.00
2022-10-11T03:26:28.369Z,529.00
2022-10-11T03:27:28.718Z,528.00
2022-10-11T03:28:28.368Z,526.00
2022-10-11T03:29:28.467Z,521.00
2022-10-11T03:30:28.317Z,523.00
2022-10-11T03:31:28.927Z,518.00
2022-10-11T03:32:28.248Z,517.00
2022-10-11T03:33:27.698Z,517.00
2022-10-11T03:34:28.247Z,520.00
2022-10-11T03:35:30.326Z,521.00
2022-10-11T03:36:28.237Z,523.00
2022-10-11T03:37:29.680Z,525.00
2022-10-11T03:38:27.607Z,525.00
2022-10-11T03:39:27.758Z,523.00
2022-10-11T03:40:27.679Z,523.00
2022-10-11T03:41:27.899Z,520.00
2022-10-11T03:42:27.468Z,519.00
2022-10-11T03:43:27.613Z,518.00
2022-10-11T03:44:27.420Z,518.00
2022-10-11T03:45:29.552Z,518.00
2022-10-11T03:46:27.629Z,519.00
2022-10-11T03:47:28.279Z,521.00
2022-10-11T03:48:27.407Z,520.00
2022-10-11T03:49:27.649Z,520.00
2022-10-11T03:50:27.329Z,517.00
2022-10-11T03:51:28.430Z,518.00
2022-10-11T03:52:27.329Z,519.00
2022-10-11T03:53:27.398Z,518.00
2022-10-11T03:54:27.308Z,520.00
2022-10-11T03:55:27.418Z,521.00
2022-10-11T03:56:27.279Z,523.00
2022-10-11T03:57:29.488Z,524.00
2022-10-11T03:58:27.228Z,523.00
2022-10-11T03:59:29.268Z,523.00
2022-10-11T04:00:27.229Z,525.00
2022-10-11T04:01:28.142Z,526.00
2022-10-11T04:02:27.898Z,527.00
2022-10-11T04:03:28.368Z,528.00
2022-10-11T04:04:27.938Z,529.00
2022-10-11T04:05:29.019Z,530.00
2022-10-11T04:06:27.850Z,532.00
2022-10-11T04:07:28.029Z,531.00
2022-10-11T04:08:27.749Z,534.00
2022-10-11T04:09:32.838Z,534.00
2022-10-11T04:10:27.489Z,535.00
2022-10-11T04:11:27.237Z,536.00
2022-10-11T04:12:27.749Z,537.00
2022-10-11T04:13:27.939Z,537.00
2022-10-11T04:14:27.680Z,538.00
2022-10-11T04:15:27.227Z,538.00
2022-10-11T04:16:28.841Z,537.00
2022-10-11T04:17:27.117Z,534.00
2022-10-11T04:18:27.039Z,535.00
2022-10-11T04:19:27.041Z,537.00
2022-10-11T04:20:26.947Z,535.00
2022-10-11T04:21:28.016Z,536.00
2022-10-11T04:22:27.618Z,533.00
2022-10-11T04:23:27.019Z,533.00
2022-10-11T04:24:27.667Z,534.00
2022-10-11T04:25:27.260Z,533.00
2022-10-11T04:26:29.168Z,535.00
2022-10-11T04:27:31.228Z,536.00
2022-10-11T04:28:26.896Z,535.00
2022-10-11T04:29:32.595Z,535.00
2022-10-11T04:30:37.848Z,536.00
2022-10-11T04:31:29.565Z,537.00
2022-10-11T04:32:26.788Z,536.00
2022-10-11T04:33:26.973Z,538.00
2022-10-11T04:34:26.778Z,537.00
2022-10-11T04:35:27.635Z,536.00
2022-10-11T04:36:27.449Z,536.00
2022-10-11T04:37:26.893Z,536.00
2022-10-11T04:38:27.369Z,535.00
2022-10-11T04:39:29.349Z,535.00
2022-10-11T04:40:26.768Z,534.00
2022-10-11T04:41:26.839Z,535.00
2022-10-11T04:42:27.359Z,536.00
2022-10-11T04:43:28.399Z,536.00
2022-10-11T04:44:27.179Z,535.00
2022-10-11T04:45:26.939Z,536.00
2022-10-11T04:46:26.781Z,535.00
2022-10-11T04:47:26.890Z,535.00
2022-10-11T04:48:26.769Z,536.00
2022-10-11T04:49:26.781Z,537.00
2022-10-11T04:50:26.819Z,537.00
2022-10-11T04:51:29.069Z,537.00
2022-10-11T04:52:26.677Z,537.00
2022-10-11T04:53:26.826Z,537.00
2022-10-11T04:54:26.508Z,539.00
2022-10-11T04:55:26.989Z,540.00
2022-10-11T04:56:26.700Z,542.00
2022-10-11T04:57:27.721Z,544.00
2022-10-11T04:58:27.809Z,544.00
2022-10-11T04:59:26.719Z,544.00
2022-10-11T05:00:26.739Z,544.00
2022-10-11T05:01:27.477Z,546.00
2022-10-11T05:02:26.458Z,545.00
2022-10-11T05:03:26.579Z,543.00
2022-10-11T05:04:26.368Z,542.00
2022-10-11T05:05:26.488Z,541.00
2022-10-11T05:06:27.087Z,539.00
2022-10-11T05:07:27.209Z,538.00
2022-10-11T05:08:26.970Z,540.00
2022-10-11T05:09:26.951Z,541.00
2022-10-11T05:10:26.275Z,540.00
2022-10-11T05:11:26.541Z,538.00
2022-10-11T05:12:26.339Z,539.00
2022-10-11T05:13:26.819Z,541.00
2022-10-11T05:14:26.267Z,542.00
2022-10-11T05:15:26.308Z,541.00
2022-10-11T05:16:26.380Z,539.00
2022-10-11T05:17:26.396Z,539.00
2022-10-11T05:18:26.237Z,537.00
2022-10-11T05:19:28.498Z,538.00
2022-10-11T05:20:26.216Z,540.00
2022-10-11T05:21:26.329Z,539.00
2022-10-11T05:22:26.159Z,540.00
2022-10-11T05:23:26.280Z,540.00
2022-10-11T05:24:26.197Z,543.00
2022-10-11T05:25:26.449Z,546.00
2022-10-11T05:26:26.228Z,546.00
2022-10-11T05:27:26.263Z,546.00
2022-10-11T05:28:26.355Z,545.00
2022-10-11T05:29:32.650Z,543.00
2022-10-11T05:30:30.699Z,541.00
2022-10-11T05:31:26.118Z,541.00
2022-10-11T05:32:28.169Z,540.00
2022-10-11T05:33:26.060Z,540.00
2022-10-11T05:34:26.810Z,541.00
2022-10-11T05:35:26.637Z,541.00
2022-10-11T05:36:26.059Z,542.00
2022-10-11T05:37:25.929Z,541.00
2022-10-11T05:38:25.988Z,544.00
2022-10-11T05:39:26.790Z,544.00
2022-10-11T05:40:26.456Z,547.00
2022-10-11T05:41:25.897Z,544.00
2022-10-11T05:42:25.949Z,544.00
2022-10-11T05:43:25.866Z,542.00
2022-10-11T05:44:26.638Z,542.00
2022-10-11T05:45:25.856Z,544.00
2022-10-11T05:46:26.719Z,545.00
2022-10-11T05:47:25.790Z,544.00
2022-10-11T05:48:27.940Z,544.00
2022-10-11T05:49:26.458Z,545.00
2022-10-11T05:50:26.546Z,545.00
2022-10-11T05:51:25.779Z,543.00
2022-10-11T05:52:28.060Z,545.00
2022-10-11T05:53:26.351Z,545.00
2022-10-11T05:54:26.036Z,547.00
2022-10-11T05:55:25.909Z,547.00
2022-10-11T05:56:25.914Z,547.00
2022-10-11T05:57:25.860Z,545.00
2022-10-11T05:58:26.828Z,544.00
2022-10-11T05:59:25.758Z,542.00
2022-10-11T06:00:25.890Z,541.00
2022-10-11T06:01:25.765Z,538.00
2022-10-11T06:02:26.109Z,541.00
2022-10-11T06:03:25.812Z,541.00
2022-10-11T06:04:28.228Z,541.00
2022-10-11T06:05:25.560Z,541.00
2022-10-11T06:06:25.708Z,540.00
2022-10-11T06:07:25.537Z,536.00
2022-10-11T06:08:28.019Z,535.00
2022-10-11T06:09:26.909Z,536.00
2022-10-11T06:10:25.658Z,536.00
2022-10-11T06:11:25.467Z,538.00
2022-10-11T06:12:25.579Z,538.00
2022-10-11T06:13:25.469Z,538.00
2022-10-11T06:14:25.628Z,536.00
2022-10-11T06:15:26.542Z,537.00
2022-10-11T06:16:25.558Z,536.00
2022-10-11T06:17:25.538Z,537.00
2022-10-11T06:18:25.509Z,538.00
2022-10-11T06:19:25.456Z,537.00
2022-10-11T06:20:25.622Z,537.00
2022-10-11T06:21:25.458Z,537.00
2022-10-11T06:22:25.627Z,534.00
2022-10-11T06:23:25.519Z,534.00
2022-10-11T06:24:25.471Z,533.00
2022-10-11T06:25:25.579Z,532.00
2022-10-11T06:26:25.479Z,531.00
2022-10-11T06:27:25.441Z,531.00
2022-10-11T06:28:26.224Z,531.00
2022-10-11T06:29:25.990Z,531.00
2022-10-11T06:30:26.629Z,531.00
2022-10-11T06:31:58.549Z,531.00
2022-10-11T06:33:34.650Z,593.00
2022-10-11T06:34:34.541Z,543.00
2022-10-11T06:35:37.131Z,535.00
2022-10-11T06:36:35.560Z,533.00
2022-10-11T06:37:34.752Z,531.00
2022-10-11T06:38:34.531Z,530.00
2022-10-11T06:39:34.559Z,528.00
2022-10-11T06:40:34.471Z,525.00
2022-10-11T06:41:34.898Z,526.00
2022-10-11T06:42:34.732Z,526.00
2022-10-11T06:43:34.515Z,526.00
2022-10-11T06:44:34.451Z,525.00
2022-10-11T06:45:34.911Z,527.00
2022-10-11T06:46:34.810Z,527.00
2022-10-11T06:47:34.370Z,527.00
2022-10-11T06:48:35.762Z,526.00
2022-10-11T06:49:34.412Z,526.00
2022-10-11T06:50:57.999Z,528.00
2022-10-11T06:51:35.422Z,527.00
2022-10-11T06:52:34.781Z,529.00
2022-10-11T06:53:34.480Z,530.00
2022-10-11T06:54:34.563Z,533.00
2022-10-11T06:55:34.863Z,535.00
2022-10-11T06:56:34.521Z,537.00
2022-10-11T06:57:34.603Z,537.00
2022-10-11T06:58:34.530Z,536.00
2022-10-11T06:59:36.952Z,537.00
2022-10-11T07:00:34.542Z,536.00
2022-10-11T07:01:41.920Z,534.00
2022-10-11T07:02:34.445Z,534.00
2022-10-11T07:03:34.502Z,534.00
2022-10-11T07:04:36.062Z,535.00
2022-10-11T07:05:35.032Z,533.00
2022-10-11T07:06:35.810Z,532.00
2022-10-11T07:07:34.528Z,531.00
2022-10-11T07:08:34.422Z,531.00
2022-10-11T07:09:36.482Z,531.00
2022-10-11T07:10:35.047Z,531.00
2022-10-11T07:11:35.130Z,530.00
2022-10-11T07:12:34.460Z,531.00
2022-10-11T07:13:34.502Z,528.00
2022-10-11T07:14:34.152Z,528.00
2022-10-11T07:15:34.367Z,528.00
2022-10-11T07:16:34.040Z,528.00
2022-10-11T07:17:34.033Z,529.00
2022-10-11T07:18:34.734Z,527.00
2022-10-11T07:19:34.174Z,526.00
2022-10-11T07:20:37.051Z,525.00
2022-10-11T07:21:34.179Z,527.00
2022-10-11T07:22:33.943Z,525.00
2022-10-11T07:23:39.057Z,523.00
2022-10-11T07:24:35.892Z,521.00
2022-10-11T07:25:36.133Z,520.00
2022-10-11T07:26:38.907Z,517.00
2022-10-11T07:27:36.296Z,518.00
2022-10-11T07:28:33.885Z,516.00
2022-10-11T07:29:33.844Z,514.00
2022-10-11T07:30:33.801Z,514.00
2022-10-11T07:31:35.000Z,510.00
2022-10-11T07:32:34.443Z,511.00
2022-10-11T07:33:33.770Z,512.00
2022-10-11T07:34:33.902Z,512.00
2022-10-11T07:35:34.558Z,509.00
2022-10-11T07:36:33.852Z,505.00
2022-10-11T07:37:41.462Z,505.00
2022-10-11T07:38:35.061Z,500.00
2022-10-11T07:39:33.802Z,501.00
2022-10-11T07:40:33.864Z,502.00
2022-10-11T07:41:33.737Z,501.00
2022-10-11T07:42:33.756Z,501.00
2022-10-11T07:43:33.747Z,503.00
2022-10-11T07:44:33.701Z,504.00
2022-10-11T07:45:33.864Z,503.00
2022-10-11T07:46:34.191Z,505.00
2022-10-11T07:47:33.652Z,506.00
2022-10-11T07:48:33.684Z,508.00
2022-10-11T07:49:33.862Z,507.00
2022-10-11T07:50:33.665Z,508.00
2022-10-11T07:51:33.831Z,508.00
2022-10-11T07:52:33.652Z,507.00
2022-10-11T07:53:33.750Z,505.00
2022-10-11T07:54:33.686Z,504.00
2022-10-11T07:55:33.741Z,505.00
2022-10-11T07:56:33.572Z,505.00
2022-10-11T07:57:33.532Z,503.00
2022-10-11T07:58:33.713Z,502.00
2022-10-11T07:59:33.462Z,504.00
2022-10-11T08:00:33.369Z,504.00
2022-10-11T08:01:33.510Z,502.00
2022-10-11T08:02:33.424Z,502.00
2022-10-11T08:03:34.081Z,499.00
2022-10-11T08:04:33.394Z,500.00
2022-10-11T08:05:33.372Z,500.00
2022-10-11T08:06:33.293Z,500.00
2022-10-11T08:07:33.321Z,500.00
2022-10-11T08:08:33.262Z,500.00
2022-10-11T08:09:33.349Z,500.00
2022-10-11T08:10:33.263Z,504.00
2022-10-11T08:11:33.446Z,504.00
2022-10-11T08:12:33.251Z,506.00
2022-10-11T08:13:33.236Z,506.00
2022-10-11T08:14:33.215Z,503.00
2022-10-11T08:15:33.346Z,504.00
2022-10-11T08:16:33.195Z,505.00
2022-10-11T08:17:33.554Z,507.00
2022-10-11T08:18:33.135Z,505.00
2022-10-11T08:19:33.193Z,504.00
2022-10-11T08:20:33.344Z,504.00
2022-10-11T08:21:33.186Z,503.00
2022-10-11T08:22:33.069Z,499.00
2022-10-11T08:23:33.802Z,501.00
2022-10-11T08:24:38.184Z,502.00
2022-10-11T08:25:34.052Z,500.00
2022-10-11T08:26:33.303Z,499.00
2022-10-11T08:27:33.831Z,498.00
2022-10-11T08:28:33.538Z,499.00
2022-10-11T08:29:33.174Z,497.00
2022-10-11T08:30:33.656Z,498.00
2022-10-11T08:31:33.131Z,497.00
2022-10-11T08:32:33.123Z,495.00
2022-10-11T08:33:33.392Z,495.00
2022-10-11T08:34:32.986Z,495.00
2022-10-11T08:35:33.305Z,497.00
2022-10-11T08:36:33.142Z,496.00
2022-10-11T08:37:32.900Z,496.00
2022-10-11T08:38:32.985Z,497.00
2022-10-11T08:39:32.942Z,499.00
2022-10-11T08:40:36.550Z,499.00
2022-10-11T08:41:43.252Z,498.00
2022-10-11T08:42:33.973Z,496.00
2022-10-11T08:43:33.402Z,496.00
2022-10-11T08:44:51.896Z,499.00
2022-10-11T08:45:33.862Z,498.00
2022-10-11T08:46:32.771Z,498.00
2022-10-11T08:47:32.982Z,495.00
2022-10-11T08:48:32.897Z,495.00
2022-10-11T08:49:32.743Z,497.00
2022-10-11T08:50:33.092Z,499.00
2022-10-11T08:52:12.353Z,499.00
2022-10-11T08:52:33.735Z,500.00
2022-10-11T08:53:32.687Z,500.00
2022-10-11T08:54:33.513Z,500.00
2022-10-11T08:55:34.123Z,501.00
2022-10-11T08:56:41.405Z,504.00
2022-10-11T08:57:33.755Z,500.00
2022-10-11T08:58:34.832Z,496.00
2022-10-11T08:59:32.753Z,497.00
2022-10-11T09:00:32.632Z,497.00
2022-10-11T09:01:33.245Z,497.00
2022-10-11T09:02:55.634Z,499.00
2022-10-11T09:03:36.120Z,493.00
2022-10-11T09:04:44.164Z,501.00
2022-10-11T09:05:45.482Z,502.00
2022-10-11T09:08:24.412Z,550.00
2022-10-11T09:09:20.671Z,507.00
2022-10-11T09:09:42.188Z,503.00
2022-10-11T09:10:44.243Z,499.00
2022-10-11T09:11:45.428Z,498.00
2022-10-11T09:12:41.826Z,491.00
2022-10-11T09:13:42.318Z,489.00
2022-10-11T09:14:45.360Z,489.00
2022-10-11T09:15:51.380Z,491.00
2022-10-11T09:16:41.558Z,491.00
2022-10-11T09:17:45.846Z,489.00
2022-10-11T09:18:47.920Z,491.00
2022-10-11T09:19:49.988Z,492.00
2022-10-11T09:21:18.324Z,492.00
2022-10-11T09:21:46.127Z,492.00
2022-10-11T09:22:42.048Z,492.00
2022-10-11T09:23:43.705Z,489.00
2022-10-11T09:24:43.512Z,491.00
2022-10-11T09:25:42.079Z,489.00
2022-10-11T09:26:40.758Z,490.00
2022-10-11T09:28:02.452Z,494.00
2022-10-11T09:28:46.271Z,491.00
2022-10-11T09:29:44.782Z,491.00
2022-10-11T09:30:43.808Z,493.00
2022-10-11T09:33:17.684Z,548.00
2022-10-11T09:34:12.698Z,504.00
2022-10-11T09:35:05.934Z,496.00
2022-10-11T09:36:07.508Z,495.00
2022-10-11T09:36:59.355Z,494.00
2022-10-11T09:38:00.206Z,501.00
2022-10-11T09:39:07.662Z,498.00
2022-10-11T09:40:23.744Z,499.00
2022-10-11T09:40:59.052Z,497.00
2022-10-11T09:41:58.997Z,497.00
2022-10-11T09:43:12.197Z,494.00
2022-10-11T09:44:02.847Z,494.00
2022-10-11T09:45:14.145Z,495.00
2022-10-11T09:46:02.528Z,497.00
2022-10-11T09:47:02.155Z,497.00
2022-10-11T09:48:06.651Z,498.00
2022-10-11T09:49:06.926Z,495.00
2022-10-11T09:49:59.738Z,496.00
2022-10-11T09:50:59.193Z,496.00
2022-10-11T09:51:59.246Z,496.00
2022-10-11T09:52:59.195Z,495.00
2022-10-11T09:54:07.696Z,495.00
2022-10-11T09:54:58.928Z,498.00
2022-10-11T09:55:59.869Z,494.00
2022-10-11T09:56:59.056Z,495.00
2022-10-11T09:58:01.146Z,494.00
2022-10-11T09:58:59.224Z,496.00
2022-10-11T09:59:59.128Z,496.00
2022-10-11T10:00:58.652Z,496.00
2022-10-11T10:01:59.565Z,492.00
2022-10-11T10:02:58.649Z,493.00
2022-10-11T10:03:59.244Z,495.00
2022-10-11T10:04:59.226Z,496.00
2022-10-11T10:05:59.327Z,492.00
2022-10-11T10:06:59.046Z,490.00
2022-10-11T10:08:04.798Z,492.00
2022-10-11T10:08:58.964Z,494.00
2022-10-11T10:10:00.728Z,494.00
2022-10-11T10:11:07.913Z,495.00
2022-10-11T10:11:58.576Z,496.00
2022-10-11T10:13:07.048Z,497.00
2022-10-11T10:14:08.468Z,496.00
2022-10-11T10:14:58.909Z,494.00
2022-10-11T10:16:00.036Z,490.00
2022-10-11T10:17:04.468Z,492.00
2022-10-11T10:17:58.844Z,492.00
2022-10-11T10:18:59.249Z,494.00
2022-10-11T10:19:58.627Z,492.00
2022-10-11T10:20:58.944Z,494.00
2022-10-11T10:21:58.408Z,491.00
2022-10-11T10:22:58.706Z,493.00
2022-10-11T10:23:58.965Z,493.00
2022-10-11T10:24:59.919Z,494.00
2022-10-11T10:25:59.228Z,494.00
2022-10-11T10:26:58.398Z,490.00
2022-10-11T10:27:58.504Z,490.00
2022-10-11T10:28:58.482Z,491.00
2022-10-11T10:30:06.511Z,491.00
2022-10-11T10:31:02.690Z,491.00
2022-10-11T10:32:13.795Z,494.00
2022-10-11T10:32:59.231Z,495.00
2022-10-11T10:33:58.439Z,492.00
2022-10-11T10:34:58.389Z,496.00
2022-10-11T10:35:59.420Z,487.00
2022-10-11T10:36:58.270Z,489.00
2022-10-11T10:37:59.716Z,491.00
2022-10-11T10:38:58.289Z,488.00
2022-10-11T10:39:58.178Z,486.00
2022-10-11T10:40:58.166Z,487.00
2022-10-11T10:41:58.198Z,488.00
2022-10-11T10:42:58.101Z,493.00
2022-10-11T10:43:58.180Z,490.00
2022-10-11T10:44:58.108Z,488.00
2022-10-11T10:46:00.301Z,484.00
2022-10-11T10:46:58.079Z,484.00
2022-10-11T10:47:58.840Z,481.00
2022-10-11T10:49:59.858Z,483.00
2022-10-11T10:50:57.971Z,483.00
2022-10-11T10:51:58.061Z,485.00
2022-10-11T10:52:58.821Z,485.00
2022-10-11T10:53:58.083Z,484.00
2022-10-11T10:55:02.743Z,482.00
2022-10-11T10:56:00.711Z,484.00
2022-10-11T10:56:58.162Z,485.00
2022-10-11T10:58:01.583Z,483.00
2022-10-11T10:58:58.032Z,483.00
2022-10-11T11:00:00.034Z,484.00
2022-10-11T11:00:57.862Z,478.00
2022-10-11T11:02:06.753Z,477.00
2022-10-11T11:02:58.924Z,475.00
2022-10-11T11:03:57.872Z,475.00
2022-10-11T11:05:00.814Z,478.00
2022-10-11T11:05:57.843Z,477.00
2022-10-11T11:06:58.154Z,477.00
2022-10-11T11:07:57.818Z,476.00
2022-10-11T11:08:58.942Z,479.00
2022-10-11T11:09:57.812Z,479.00
2022-10-11T11:10:58.504Z,480.00
2022-10-11T11:12:02.176Z,481.00
2022-10-11T11:12:57.711Z,481.00
2022-10-11T11:13:57.753Z,481.00
2022-10-11T11:14:57.765Z,481.00
2022-10-11T11:15:57.876Z,481.00
2022-10-11T11:16:57.724Z,483.00
2022-10-11T11:17:57.972Z,485.00
2022-10-11T11:18:58.752Z,483.00
2022-10-11T11:19:57.949Z,483.00
2022-10-11T11:20:57.714Z,482.00
2022-10-11T11:21:57.786Z,488.00
2022-10-11T11:22:58.754Z,489.00
2022-10-11T11:23:58.045Z,491.00
2022-10-11T11:24:57.565Z,488.00
2022-10-11T11:25:57.715Z,485.00
2022-10-11T11:26:57.507Z,486.00
2022-10-11T11:27:57.610Z,486.00
2022-10-11T11:28:57.541Z,486.00
2022-10-11T11:29:57.755Z,484.00
2022-10-11T11:31:18.549Z,485.00
2022-10-11T11:32:18.516Z,483.00
2022-10-11T11:32:57.476Z,484.00
2022-10-11T11:33:57.675Z,480.00
2022-10-11T11:34:58.137Z,482.00
2022-10-11T11:35:58.395Z,481.00
2022-10-11T11:36:57.686Z,482.00
2022-10-11T11:38:02.528Z,480.00
2022-10-11T11:38:58.363Z,480.00
2022-10-11T11:39:57.396Z,478.00
2022-10-11T11:40:57.326Z,482.00
2022-10-11T11:41:57.407Z,483.00
2022-10-11T11:42:57.347Z,488.00
2022-10-11T11:43:57.445Z,481.00
2022-10-11T11:44:57.327Z,479.00
2022-10-11T11:45:57.366Z,476.00
2022-10-11T11:46:57.239Z,477.00
2022-10-11T11:47:57.679Z,479.00
2022-10-11T11:49:31.475Z,480.00
2022-10-11T11:49:57.299Z,479.00
2022-10-11T11:50:57.725Z,482.00
2022-10-11T11:51:57.167Z,485.00
2022-10-11T11:52:58.168Z,485.00
2022-10-11T11:53:57.159Z,484.00
2022-10-11T11:55:01.445Z,482.00
2022-10-11T11:56:00.408Z,478.00
2022-10-11T11:56:57.237Z,476.00
2022-10-11T11:57:57.378Z,480.00
2022-10-11T11:58:57.249Z,480.00
2022-10-11T11:59:57.059Z,479.00
2022-10-11T12:01:02.858Z,478.00
2022-10-11T12:01:57.981Z,481.00
2022-10-11T12:02:57.260Z,479.00
2022-10-11T12:03:57.856Z,480.00
2022-10-11T12:05:00.648Z,478.00
2022-10-11T12:05:57.231Z,478.00
2022-10-11T12:07:14.964Z,477.00
2022-10-11T12:07:58.200Z,475.00
2022-10-11T12:08:58.861Z,475.00
2022-10-11T12:10:00.260Z,476.00
2022-10-11T12:11:01.603Z,476.00
2022-10-11T12:11:58.991Z,476.00
2022-10-11T12:13:17.296Z,476.00
2022-10-11T12:14:05.021Z,475.00
2022-10-11T12:14:57.502Z,477.00
2022-10-11T12:15:57.402Z,476.00
2022-10-11T12:16:58.814Z,478.00
2022-10-11T12:17:59.991Z,480.00
2022-10-11T12:19:12.083Z,478.00
2022-10-11T12:19:57.354Z,476.00
2022-10-11T12:20:57.174Z,479.00
2022-10-11T12:22:00.252Z,475.00
2022-10-11T12:22:57.701Z,478.00
2022-10-11T12:23:56.922Z,476.00
2022-10-11T12:24:56.906Z,480.00
2022-10-11T12:25:57.769Z,477.00
2022-10-11T12:26:57.403Z,475.00
2022-10-11T12:28:01.664Z,476.00
2022-10-11T12:28:56.815Z,477.00
2022-10-11T12:29:57.126Z,482.00
2022-10-11T12:30:56.954Z,484.00
2022-10-11T12:31:57.923Z,480.00
2022-10-11T12:32:56.747Z,481.00
2022-10-11T12:33:57.194Z,483.00